Time;durP1;ratioP1;P1;durP2;ratioP2;P2;SDS_P1;SDS_P2;PMS_P1;PMS_P2;Temp;Humidity;BMP_temperature;BMP_pressure;BME280_temperature;BME280_humidity;BME280_pressure;Samples;Min_cycle;Max_cycle;Signal;HPM_P1;HPM_P2
2021/05/15 00:00:10;;;;;;;0.93;0.10;;;13.50;68.00;;;;;;5014813;28;20049;-84
2021/05/15 00:02:37;;;;;;;0.00;0.00;;;13.50;68.10;;;;;;5014177;28;20027;-84
2021/05/15 00:05:07;;;;;;;1.95;0.20;;;13.50;68.20;;;;;;5003716;28;20034;-84
2021/05/15 00:07:33;;;;;;;1.05;0.03;;;13.40;68.20;;;;;;5009244;28;20403;-84
2021/05/15 00:09:59;;;;;;;0.00;0.00;;;13.40;68.20;;;;;;5009944;28;20026;-82
2021/05/15 00:12:25;;;;;;;0.00;0.00;;;13.40;68.60;;;;;;4992349;28;20487;-84
2021/05/15 00:14:52;;;;;;;1.27;0.13;;;13.40;68.20;;;;;;5008801;28;20042;-83
2021/05/15 00:17:18;;;;;;;0.00;0.00;;;13.40;68.30;;;;;;4993820;28;20084;-84
2021/05/15 00:19:44;;;;;;;0.47;0.17;;;13.40;68.50;;;;;;5008830;28;20030;-84
2021/05/15 00:22:10;;;;;;;0.13;0.00;;;13.40;68.60;;;;;;4992286;28;20296;-84
2021/05/15 00:24:36;;;;;;;0.10;0.10;;;13.30;68.70;;;;;;5009023;28;20487;-84
2021/05/15 00:27:03;;;;;;;0.00;0.00;;;13.30;68.80;;;;;;5039998;28;20037;-83
2021/05/15 00:29:29;;;;;;;0.10;0.00;;;13.20;68.80;;;;;;4990882;28;20048;-84
2021/05/15 00:31:55;;;;;;;0.00;0.00;;;13.30;68.90;;;;;;5007316;28;20037;-84
2021/05/15 00:34:21;;;;;;;0.30;0.00;;;13.20;69.00;;;;;;5006777;28;20076;-83
2021/05/15 00:36:48;;;;;;;0.00;0.00;;;13.10;69.10;;;;;;5011068;28;20033;-83
2021/05/15 00:39:15;;;;;;;0.90;0.28;;;13.20;69.20;;;;;;5010631;28;20052;-83
2021/05/15 00:41:41;;;;;;;0.10;0.00;;;13.10;69.20;;;;;;4990833;28;20046;-83
2021/05/15 00:46:49;;;;;;;0.00;0.00;;;13.10;69.20;;;;;;5002732;28;20046;-82
2021/05/15 00:49:15;;;;;;;0.00;0.00;;;13.10;69.70;;;;;;5009735;28;20041;-82
2021/05/15 00:51:41;;;;;;;0.00;0.00;;;13.10;69.20;;;;;;4992513;28;20040;-83
2021/05/15 00:54:11;;;;;;;0.40;0.08;;;13.10;69.30;;;;;;5014464;28;20403;-82
2021/05/15 00:56:38;;;;;;;0.00;0.00;;;13.10;69.40;;;;;;5007746;28;20049;-82
2021/05/15 00:59:04;;;;;;;0.85;0.17;;;13.00;69.30;;;;;;5008546;28;20041;-82
2021/05/15 01:01:31;;;;;;;0.00;0.00;;;13.00;69.40;;;;;;5008418;28;20049;-81
2021/05/15 01:03:57;;;;;;;0.03;0.00;;;13.00;69.40;;;;;;5008837;28;20038;-82
2021/05/15 01:06:23;;;;;;;0.00;0.00;;;13.00;69.40;;;;;;5011599;28;20037;-82
2021/05/15 01:08:49;;;;;;;0.00;0.00;;;13.00;69.40;;;;;;5038678;28;20045;-83
2021/05/15 01:11:17;;;;;;;0.03;0.00;;;13.00;69.50;;;;;;5008981;28;20049;-82
2021/05/15 01:14:09;;;;;;;0.00;0.00;;;13.00;69.50;;;;;;5006950;28;20046;-81
2021/05/15 01:16:36;;;;;;;0.30;0.17;;;13.00;69.60;;;;;;5008482;28;20041;-82
2021/05/15 01:19:03;;;;;;;0.00;0.00;;;13.00;69.60;;;;;;4990832;28;20042;-82
2021/05/15 01:21:30;;;;;;;0.00;0.00;;;12.90;69.60;;;;;;5011129;28;20041;-83
2021/05/15 01:23:56;;;;;;;0.03;0.00;;;12.90;69.70;;;;;;5021060;28;20479;-82
2021/05/15 01:26:27;;;;;;;0.00;0.00;;;12.90;69.80;;;;;;5009774;28;20041;-82
2021/05/15 01:28:57;;;;;;;3.00;0.10;;;12.90;69.90;;;;;;5006982;28;20479;-82
2021/05/15 01:31:24;;;;;;;0.00;0.00;;;12.90;69.90;;;;;;5008299;28;20394;-81
2021/05/15 01:33:50;;;;;;;0.22;0.13;;;12.90;69.90;;;;;;5010076;28;20495;-82
2021/05/15 01:36:17;;;;;;;3.15;1.10;;;12.90;69.80;;;;;;5039096;28;20042;-82
2021/05/15 01:38:43;;;;;;;0.08;0.00;;;13.00;69.90;;;;;;5011545;28;20026;-82
2021/05/15 01:41:11;;;;;;;0.20;0.00;;;12.90;69.80;;;;;;5010868;28;20487;-82
2021/05/15 01:43:37;;;;;;;0.00;0.00;;;13.00;70.00;;;;;;5011616;28;20022;-82
2021/05/15 01:46:03;;;;;;;0.10;0.00;;;12.90;69.90;;;;;;5009889;28;20042;-81
2021/05/15 01:48:30;;;;;;;0.00;0.00;;;13.00;70.00;;;;;;5012868;28;20418;-82
2021/05/15 01:51:00;;;;;;;2.72;0.00;;;13.00;70.00;;;;;;5031846;28;20037;-81
2021/05/15 01:53:27;;;;;;;0.00;0.00;;;13.00;70.10;;;;;;5007982;28;20041;-83
2021/05/15 01:55:54;;;;;;;1.65;0.10;;;12.90;70.00;;;;;;4993890;28;20037;-82
2021/05/15 01:58:20;;;;;;;0.00;0.00;;;12.90;70.10;;;;;;5009958;28;20376;-82
2021/05/15 02:00:46;;;;;;;1.77;0.47;;;12.90;70.20;;;;;;5010975;28;20057;-82
2021/05/15 02:03:12;;;;;;;0.00;0.00;;;12.90;70.30;;;;;;5005585;28;20041;-82
2021/05/15 02:05:38;;;;;;;0.00;0.00;;;12.90;70.30;;;;;;4989871;28;20037;-82
2021/05/15 02:08:04;;;;;;;0.00;0.00;;;12.90;70.30;;;;;;5022444;28;20487;-82
2021/05/15 02:10:30;;;;;;;0.00;0.00;;;12.90;70.30;;;;;;5009600;28;20109;-82
2021/05/15 02:12:57;;;;;;;0.25;0.10;;;12.90;70.40;;;;;;5006102;28;20040;-82
2021/05/15 02:15:23;;;;;;;0.05;0.00;;;12.90;70.40;;;;;;5024390;28;20053;-81
2021/05/15 02:17:49;;;;;;;0.10;0.00;;;12.90;70.50;;;;;;5016324;28;20047;-82
2021/05/15 02:20:15;;;;;;;0.00;0.00;;;12.90;70.60;;;;;;5004396;28;20038;-82
2021/05/15 02:22:41;;;;;;;0.00;0.00;;;12.90;70.60;;;;;;5005131;28;20036;-82
2021/05/15 02:25:08;;;;;;;0.05;0.00;;;12.90;70.70;;;;;;5031805;28;20041;-82
2021/05/15 02:27:34;;;;;;;0.00;0.00;;;12.90;70.80;;;;;;5002353;28;20042;-81
2021/05/15 02:30:00;;;;;;;0.00;0.00;;;12.90;71.50;;;;;;5015578;28;20053;-81
2021/05/15 02:32:26;;;;;;;0.30;0.03;;;12.90;70.80;;;;;;5040419;28;20033;-81
2021/05/15 02:34:52;;;;;;;0.00;0.00;;;12.90;70.90;;;;;;5033784;28;20042;-82
2021/05/15 02:37:18;;;;;;;0.00;0.00;;;12.90;71.00;;;;;;5012106;28;20034;-82
2021/05/15 02:39:44;;;;;;;0.05;0.00;;;12.90;71.00;;;;;;5012289;28;20044;-82
2021/05/15 02:42:10;;;;;;;0.00;0.00;;;12.90;71.10;;;;;;5041486;28;20046;-81
2021/05/15 02:44:37;;;;;;;0.00;0.00;;;12.90;71.10;;;;;;5011592;28;20029;-82
2021/05/15 02:47:03;;;;;;;0.00;0.00;;;12.90;71.10;;;;;;4974778;28;20058;-82
2021/05/15 02:49:29;;;;;;;0.00;0.00;;;12.90;71.10;;;;;;5010613;28;20030;-82
2021/05/15 02:51:55;;;;;;;0.10;0.00;;;13.00;71.20;;;;;;5011097;28;20490;-82
2021/05/15 02:54:21;;;;;;;0.00;0.00;;;13.00;71.10;;;;;;5012225;28;20045;-82
2021/05/15 02:56:47;;;;;;;0.00;0.00;;;13.00;71.10;;;;;;5030918;28;20372;-82
2021/05/15 02:59:13;;;;;;;0.00;0.00;;;13.00;71.20;;;;;;5010971;28;20045;-82
2021/05/15 03:01:39;;;;;;;0.00;0.00;;;13.00;71.30;;;;;;5009556;28;20049;-82
2021/05/15 03:04:05;;;;;;;0.00;0.00;;;13.00;71.20;;;;;;4994512;28;20029;-82
2021/05/15 03:06:31;;;;;;;0.00;0.00;;;13.10;71.40;;;;;;5012628;28;20489;-82
2021/05/15 03:08:57;;;;;;;0.00;0.00;;;13.10;71.30;;;;;;5016271;28;20030;-83
2021/05/15 03:11:23;;;;;;;0.00;0.00;;;13.10;71.30;;;;;;5008364;28;20513;-82
2021/05/15 03:13:50;;;;;;;0.00;0.00;;;13.10;71.30;;;;;;5011455;28;20447;-82
2021/05/15 03:16:16;;;;;;;0.10;0.00;;;13.20;71.30;;;;;;5010146;28;20403;-83
2021/05/15 03:18:42;;;;;;;0.00;0.00;;;13.20;72.10;;;;;;4994565;28;20033;-82
2021/05/15 03:21:08;;;;;;;0.00;0.00;;;13.20;71.30;;;;;;5013367;28;20355;-83
2021/05/15 03:23:34;;;;;;;0.15;0.00;;;13.20;71.40;;;;;;5016046;28;20034;-82
2021/05/15 03:26:00;;;;;;;0.90;0.25;;;13.30;71.50;;;;;;5008535;28;20034;-82
2021/05/15 03:28:26;;;;;;;0.08;0.00;;;13.30;71.50;;;;;;5008477;28;20399;-82
2021/05/15 03:30:53;;;;;;;0.00;0.00;;;13.30;71.50;;;;;;5039612;28;20069;-82
2021/05/15 03:33:19;;;;;;;0.00;0.00;;;13.30;71.60;;;;;;5012068;28;20038;-82
2021/05/15 03:35:45;;;;;;;0.00;0.00;;;13.30;71.60;;;;;;5010215;28;20395;-81
2021/05/15 03:38:11;;;;;;;0.20;0.08;;;13.40;71.70;;;;;;5010743;28;20227;-82
2021/05/15 03:40:37;;;;;;;2.90;0.10;;;13.40;71.70;;;;;;5007846;28;20040;-82
2021/05/15 03:43:04;;;;;;;0.95;0.17;;;13.40;71.70;;;;;;5010044;28;20041;-82
2021/05/15 03:45:30;;;;;;;4.88;0.10;;;13.40;71.70;;;;;;5010080;28;20045;-83
2021/05/15 03:47:56;;;;;;;0.08;0.00;;;13.50;71.80;;;;;;5013010;28;20030;-82
2021/05/15 03:50:22;;;;;;;0.70;0.15;;;13.50;71.90;;;;;;5011310;28;20049;-82
2021/05/15 03:52:49;;;;;;;0.10;0.00;;;13.50;71.90;;;;;;5008090;28;20038;-83
2021/05/15 03:55:15;;;;;;;0.00;0.00;;;13.50;71.90;;;;;;5010006;28;20032;-83
2021/05/15 03:57:41;;;;;;;0.00;0.00;;;13.60;72.00;;;;;;5009823;28;20045;-82
2021/05/15 04:00:09;;;;;;;0.08;0.03;;;13.60;72.00;;;;;;5022581;28;20475;-83
2021/05/15 04:02:38;;;;;;;0.10;0.00;;;13.60;72.00;;;;;;5007861;28;20038;-83
2021/05/15 04:05:08;;;;;;;0.52;0.00;;;13.60;72.00;;;;;;5009148;28;20034;-81
2021/05/15 04:07:34;;;;;;;0.00;0.00;;;13.60;72.10;;;;;;5006855;28;20036;-81
2021/05/15 04:10:00;;;;;;;0.00;0.00;;;13.60;72.20;;;;;;4990754;28;20042;-81
2021/05/15 04:12:33;;;;;;;0.20;0.00;;;13.60;72.20;;;;;;5011198;28;20022;-81
2021/05/15 04:15:10;;;;;;;2.17;0.30;;;13.60;72.20;;;;;;5012272;28;20057;-82
2021/05/15 04:17:36;;;;;;;0.05;0.00;;;13.60;72.30;;;;;;5006391;28;20042;-81
2021/05/15 04:20:04;;;;;;;7.78;0.30;;;13.60;72.30;;;;;;5033962;28;20393;-81
2021/05/15 04:22:30;;;;;;;8.75;0.50;;;13.60;72.40;;;;;;5013936;28;20041;-81
2021/05/15 04:24:59;;;;;;;0.35;0.20;;;13.60;72.50;;;;;;5010539;28;20026;-81
2021/05/15 04:27:25;;;;;;;0.25;0.10;;;13.60;72.50;;;;;;5012410;28;20033;-81
2021/05/15 04:29:51;;;;;;;0.20;0.20;;;13.60;72.60;;;;;;5038157;28;20206;-81
2021/05/15 04:32:18;;;;;;;0.85;0.52;;;13.60;72.70;;;;;;5010179;28;20053;-81
2021/05/15 04:34:44;;;;;;;0.35;0.17;;;13.60;72.70;;;;;;5010760;28;20044;-81
2021/05/15 04:37:10;;;;;;;5.00;0.20;;;13.60;72.80;;;;;;4994645;28;20041;-80
2021/05/15 04:39:36;;;;;;;0.10;0.00;;;13.60;72.80;;;;;;4993569;28;20383;-81
2021/05/15 04:42:02;;;;;;;0.45;0.22;;;13.60;72.90;;;;;;5023015;28;20042;-80
2021/05/15 04:44:28;;;;;;;1.52;0.60;;;13.60;72.90;;;;;;5010834;28;20030;-81
2021/05/15 04:46:54;;;;;;;0.00;0.00;;;13.60;73.00;;;;;;5010020;28;20045;-81
2021/05/15 04:49:20;;;;;;;0.40;0.10;;;13.60;73.10;;;;;;5010708;28;20395;-81
2021/05/15 04:51:47;;;;;;;8.10;0.30;;;13.60;73.00;;;;;;4992033;28;20038;-80
2021/05/15 04:54:13;;;;;;;0.60;0.13;;;13.60;73.00;;;;;;5011621;28;20046;-81
2021/05/15 04:56:39;;;;;;;3.50;0.13;;;13.70;73.10;;;;;;5009267;28;20037;-81
2021/05/15 04:59:06;;;;;;;0.43;0.10;;;13.70;73.10;;;;;;5009042;28;20038;-81
2021/05/15 05:01:32;;;;;;;0.85;0.08;;;13.70;73.10;;;;;;4991850;28;20042;-81
2021/05/15 05:03:58;;;;;;;2.72;0.45;;;13.70;73.00;;;;;;5009167;28;20033;-81
2021/05/15 05:06:24;;;;;;;0.10;0.00;;;13.70;73.00;;;;;;5010296;28;20029;-81
2021/05/15 05:08:50;;;;;;;0.00;0.00;;;13.70;73.00;;;;;;5038133;28;20030;-81
2021/05/15 05:11:16;;;;;;;1.42;0.40;;;13.80;73.00;;;;;;5009173;28;20053;-81
2021/05/15 05:13:42;;;;;;;0.68;0.43;;;13.80;73.10;;;;;;5013967;28;20391;-80
2021/05/15 05:16:09;;;;;;;3.75;0.63;;;13.80;73.10;;;;;;5014047;28;20049;-82
2021/05/15 05:18:35;;;;;;;0.00;0.00;;;13.80;73.10;;;;;;5012645;28;20040;-81
2021/05/15 05:21:02;;;;;;;1.23;0.20;;;13.90;73.10;;;;;;5015501;28;20042;-81
2021/05/15 05:23:28;;;;;;;0.00;0.00;;;13.90;73.10;;;;;;5012770;28;20475;-81
2021/05/15 05:25:54;;;;;;;6.60;0.55;;;13.90;73.10;;;;;;5012569;28;20038;-84
2021/05/15 05:28:24;;;;;;;0.20;0.20;;;13.90;73.10;;;;;;4994820;28;20033;-84
2021/05/15 05:30:50;;;;;;;1.10;0.30;;;14.00;73.10;;;;;;5010125;28;20410;-81
2021/05/15 05:33:17;;;;;;;0.40;0.20;;;14.10;73.10;;;;;;5010850;28;20064;-81
2021/05/15 05:35:43;;;;;;;3.17;0.47;;;14.10;72.90;;;;;;4994527;28;20044;-81
2021/05/15 05:38:09;;;;;;;6.00;0.47;;;14.10;72.90;;;;;;5012720;28;20034;-82
2021/05/15 05:40:35;;;;;;;1.60;0.10;;;14.10;72.90;;;;;;5012400;28;20029;-81
2021/05/15 05:43:01;;;;;;;1.13;0.20;;;14.10;73.00;;;;;;5012152;28;20049;-81
2021/05/15 05:45:27;;;;;;;0.35;0.30;;;14.20;73.00;;;;;;5014566;28;20045;-81
2021/05/15 05:47:53;;;;;;;0.03;0.00;;;14.20;73.00;;;;;;5024889;28;20483;-79
2021/05/15 05:50:19;;;;;;;1.25;0.55;;;14.20;73.00;;;;;;5011977;28;20034;-81
2021/05/15 05:52:46;;;;;;;0.50;0.20;;;14.20;73.00;;;;;;4997378;28;20049;-81
2021/05/15 05:55:12;;;;;;;0.20;0.03;;;14.30;73.10;;;;;;5012516;28;20037;-82
2021/05/15 05:57:38;;;;;;;1.65;0.63;;;14.30;73.00;;;;;;5011960;28;20406;-82
2021/05/15 06:00:04;;;;;;;1.70;0.47;;;14.40;73.00;;;;;;5042352;28;20033;-81
2021/05/15 06:02:31;;;;;;;1.17;0.10;;;14.40;72.90;;;;;;5010613;28;20053;-81
2021/05/15 06:04:57;;;;;;;2.42;0.65;;;14.50;72.90;;;;;;5012140;28;20034;-81
2021/05/15 06:07:23;;;;;;;0.82;0.22;;;14.50;73.50;;;;;;5012207;28;20386;-81
2021/05/15 06:09:49;;;;;;;0.13;0.00;;;14.60;72.70;;;;;;5028235;28;20029;-80
2021/05/15 06:12:15;;;;;;;1.58;0.55;;;14.60;72.70;;;;;;5014723;28;20043;-81
2021/05/15 06:14:41;;;;;;;3.17;0.47;;;14.60;72.70;;;;;;5010055;28;20037;-80
2021/05/15 06:17:07;;;;;;;1.60;0.93;;;14.60;72.70;;;;;;5009751;28;20034;-80
2021/05/15 06:19:34;;;;;;;1.00;0.30;;;14.60;72.80;;;;;;5018984;28;20037;-85
2021/05/15 06:22:00;;;;;;;2.03;0.73;;;14.60;72.90;;;;;;4980531;28;20042;-85
2021/05/15 06:24:26;;;;;;;0.25;0.15;;;14.70;73.10;;;;;;5012031;28;20498;-85
2021/05/15 06:26:52;;;;;;;4.28;1.52;;;14.70;72.90;;;;;;5041702;28;20044;-83
2021/05/15 06:29:18;;;;;;;0.82;0.30;;;14.80;72.90;;;;;;5009382;28;20489;-84
2021/05/15 06:31:44;;;;;;;7.25;0.30;;;15.00;72.80;;;;;;5025742;28;20038;-82
2021/05/15 06:34:10;;;;;;;2.75;0.17;;;15.00;72.60;;;;;;5009222;28;20029;-83
2021/05/15 06:36:36;;;;;;;3.60;0.45;;;15.00;72.60;;;;;;5011074;28;20034;-83
2021/05/15 06:39:03;;;;;;;3.92;0.28;;;15.00;72.50;;;;;;5009036;28;20046;-83
2021/05/15 06:41:29;;;;;;;1.13;0.40;;;15.10;72.70;;;;;;4995205;28;20050;-84
2021/05/15 06:43:55;;;;;;;1.58;0.55;;;15.10;72.70;;;;;;4993395;28;20037;-83
2021/05/15 06:46:22;;;;;;;5.00;0.20;;;15.00;72.60;;;;;;5007629;28;20384;-85
2021/05/15 06:48:48;;;;;;;2.63;0.20;;;15.10;72.70;;;;;;5011187;28;20054;-86
2021/05/15 06:51:15;;;;;;;2.17;0.20;;;15.10;72.80;;;;;;5025123;28;20545;-87
2021/05/15 06:53:41;;;;;;;0.15;0.10;;;15.10;72.90;;;;;;5010166;28;20038;-86
2021/05/15 06:56:07;;;;;;;0.90;0.40;;;15.10;72.90;;;;;;5007555;28;20041;-87
2021/05/15 06:58:33;;;;;;;5.35;0.75;;;15.00;72.90;;;;;;5009134;28;20391;-88
2021/05/15 07:00:59;;;;;;;7.43;0.80;;;15.00;72.90;;;;;;5008576;28;20041;-87
2021/05/15 07:03:25;;;;;;;7.63;0.60;;;15.00;73.00;;;;;;5024945;28;20057;-86
2021/05/15 07:05:51;;;;;;;3.95;0.52;;;15.10;73.00;;;;;;5034937;28;20029;-88
2021/05/15 07:08:17;;;;;;;1.65;0.43;;;15.10;73.00;;;;;;5002698;28;20065;-87
2021/05/15 07:10:43;;;;;;;7.68;0.93;;;15.10;73.00;;;;;;5007526;28;20037;-81
2021/05/15 07:13:10;;;;;;;3.05;0.52;;;15.10;73.00;;;;;;5009554;28;20514;-81
2021/05/15 07:15:36;;;;;;;0.10;0.10;;;15.10;72.90;;;;;;5010567;28;20034;-82
2021/05/15 07:18:02;;;;;;;1.00;0.47;;;15.10;72.80;;;;;;4997293;28;20106;-81
2021/05/15 07:20:28;;;;;;;0.65;0.10;;;15.10;72.70;;;;;;5003744;28;20045;-85
2021/05/15 07:22:54;;;;;;;6.75;0.65;;;15.20;72.70;;;;;;5003429;28;20514;-79
2021/05/15 07:25:20;;;;;;;0.47;0.13;;;15.20;72.70;;;;;;5016943;28;20029;-82
2021/05/15 07:27:46;;;;;;;1.85;0.70;;;15.20;72.60;;;;;;4996170;28;20482;-79
2021/05/15 07:30:17;;;;;;;1.95;0.63;;;15.20;72.50;;;;;;4999951;28;20041;-78
2021/05/15 07:32:44;;;;;;;4.82;0.28;;;15.30;72.50;;;;;;5008361;28;20041;-79
2021/05/15 07:35:11;;;;;;;5.03;0.15;;;15.20;72.30;;;;;;5007901;28;20468;-82
2021/05/15 07:37:38;;;;;;;1.45;0.57;;;15.30;72.40;;;;;;4990632;28;20034;-83
2021/05/15 07:40:04;;;;;;;0.30;0.00;;;15.30;72.20;;;;;;5012898;28;20022;-83
2021/05/15 07:42:31;;;;;;;0.17;0.10;;;15.40;72.20;;;;;;4996974;28;20499;-84
2021/05/15 07:44:57;;;;;;;16.67;1.35;;;15.40;72.00;;;;;;4998947;28;20033;-84
2021/05/15 07:47:25;;;;;;;8.27;0.52;;;15.50;72.00;;;;;;5016323;28;20041;-83
2021/05/15 07:49:51;;;;;;;7.43;0.90;;;15.50;71.80;;;;;;5000976;28;20034;-84
2021/05/15 07:52:17;;;;;;;1.13;0.63;;;15.60;71.70;;;;;;4999539;28;20376;-82
2021/05/15 07:54:43;;;;;;;4.38;0.22;;;15.60;71.70;;;;;;4996161;28;20041;-84
2021/05/15 07:57:11;;;;;;;0.63;0.32;;;15.60;71.60;;;;;;5008024;28;20056;-84
2021/05/15 07:59:37;;;;;;;6.40;0.77;;;15.60;71.50;;;;;;5012365;28;20033;-84
2021/05/15 08:02:03;;;;;;;0.80;0.55;;;15.50;71.50;;;;;;5007107;28;20045;-81
2021/05/15 08:04:29;;;;;;;7.57;0.28;;;15.50;71.50;;;;;;5032720;28;20028;-79
2021/05/15 08:06:56;;;;;;;8.35;0.35;;;15.50;71.40;;;;;;4997159;28;20037;-82
2021/05/15 08:09:22;;;;;;;0.55;0.50;;;15.50;71.40;;;;;;5024515;28;20026;-81
2021/05/15 08:11:49;;;;;;;17.30;0.70;;;15.50;71.40;;;;;;5008376;28;20026;-82
2021/05/15 08:14:15;;;;;;;2.40;0.32;;;15.60;71.50;;;;;;5002364;28;20467;-81
2021/05/15 08:16:41;;;;;;;3.63;0.55;;;15.50;71.30;;;;;;5018313;28;20040;-80
2021/05/15 08:19:07;;;;;;;0.10;0.08;;;15.60;71.30;;;;;;5010849;28;20470;-83
2021/05/15 08:21:33;;;;;;;0.85;0.20;;;15.60;71.10;;;;;;5001640;28;20034;-79
2021/05/15 08:24:00;;;;;;;1.77;0.22;;;15.60;71.00;;;;;;5014582;28;20057;-83
2021/05/15 08:26:27;;;;;;;1.50;0.40;;;15.60;71.00;;;;;;4992958;28;20038;-82
2021/05/15 08:28:54;;;;;;;3.00;0.13;;;15.60;71.00;;;;;;5018111;28;20049;-82
2021/05/15 08:31:20;;;;;;;1.25;0.38;;;15.70;70.90;;;;;;5007323;28;20034;-79
2021/05/15 08:33:46;;;;;;;5.38;0.40;;;15.70;70.90;;;;;;5010191;28;20394;-81
2021/05/15 08:36:12;;;;;;;1.58;0.55;;;15.70;70.70;;;;;;5005444;28;20041;-82
2021/05/15 08:38:39;;;;;;;4.53;0.60;;;15.80;70.60;;;;;;5005856;28;20041;-81
2021/05/15 08:41:06;;;;;;;10.38;0.38;;;15.80;70.50;;;;;;5038232;28;20475;-82
2021/05/15 08:43:34;;;;;;;1.70;0.20;;;15.90;70.40;;;;;;5008935;28;20040;-81
2021/05/15 08:46:01;;;;;;;0.77;0.15;;;15.90;70.20;;;;;;5008808;28;20026;-80
2021/05/15 08:48:31;;;;;;;8.40;0.55;;;16.00;70.10;;;;;;4976559;28;20042;-81
2021/05/15 08:51:00;;;;;;;15.40;1.33;;;16.20;69.90;;;;;;4987953;28;20038;-80
2021/05/15 08:53:26;;;;;;;0.73;0.20;;;16.30;70.40;;;;;;5007400;28;20415;-82
2021/05/15 08:55:53;;;;;;;2.65;0.30;;;16.50;70.10;;;;;;4993175;28;20383;-82
2021/05/15 08:58:20;;;;;;;16.48;0.65;;;16.60;69.10;;;;;;4998203;28;20026;-80
2021/05/15 09:00:47;;;;;;;15.70;0.95;;;16.70;68.70;;;;;;4972895;28;20483;-82
2021/05/15 09:03:14;;;;;;;1.02;0.10;;;16.80;68.60;;;;;;4993998;28;20395;-80
2021/05/15 09:05:42;;;;;;;0.77;0.20;;;16.80;69.30;;;;;;4999608;28;20075;-82
2021/05/15 09:08:10;;;;;;;4.78;0.40;;;16.80;68.50;;;;;;5009059;28;20047;-80
2021/05/15 09:10:37;;;;;;;0.05;0.00;;;16.70;68.50;;;;;;5007521;28;20046;-81
2021/05/15 09:13:20;;;;;;;0.40;0.28;;;16.60;68.60;;;;;;5009973;28;20022;-80
2021/05/15 09:15:47;;;;;;;6.43;0.25;;;16.50;68.80;;;;;;5009037;28;20049;-79
2021/05/15 09:18:15;;;;;;;8.15;0.30;;;16.50;68.90;;;;;;5040018;28;20498;-81
2021/05/15 09:20:41;;;;;;;7.13;0.85;;;16.50;68.90;;;;;;5008475;28;20032;-80
2021/05/15 09:23:11;;;;;;;0.80;0.03;;;16.40;68.90;;;;;;5007808;28;20038;-82
2021/05/15 09:25:37;;;;;;;10.77;1.03;;;16.40;68.90;;;;;;5007004;28;20033;-81
2021/05/15 09:28:04;;;;;;;7.03;0.52;;;16.40;68.90;;;;;;5008231;28;20423;-80
2021/05/15 09:30:31;;;;;;;1.20;0.17;;;16.40;68.80;;;;;;5009584;28;20038;-80
2021/05/15 09:32:57;;;;;;;2.45;0.70;;;16.40;68.80;;;;;;5008973;28;20054;-82
2021/05/15 09:35:26;;;;;;;0.68;0.40;;;16.40;68.60;;;;;;5008877;28;20037;-82
2021/05/15 09:37:52;;;;;;;1.67;0.05;;;16.50;68.50;;;;;;5009902;28;20064;-82
2021/05/15 09:40:22;;;;;;;7.13;0.75;;;16.60;68.30;;;;;;5009394;28;20042;-88
2021/05/15 09:42:53;;;;;;;1.10;0.40;;;16.60;68.10;;;;;;5006560;28;20403;-82
2021/05/15 09:45:27;;;;;;;0.63;0.20;;;16.70;67.90;;;;;;5037640;28;20045;-83
2021/05/15 09:47:53;;;;;;;0.55;0.08;;;16.70;67.80;;;;;;5009413;28;20036;-86
2021/05/15 09:50:20;;;;;;;10.55;0.70;;;16.70;67.70;;;;;;5010292;28;20030;-85
2021/05/15 09:52:46;;;;;;;12.20;0.98;;;16.70;67.80;;;;;;5009357;28;20543;-86
2021/05/15 09:55:12;;;;;;;1.77;0.45;;;16.70;67.80;;;;;;4993284;28;20053;-86
2021/05/15 09:57:38;;;;;;;7.28;1.13;;;16.70;67.70;;;;;;5010488;28;20033;-87
2021/05/15 10:00:14;;;;;;;3.95;0.43;;;16.70;67.70;;;;;;5012852;28;20390;-86
2021/05/15 10:02:40;;;;;;;0.32;0.10;;;16.70;67.70;;;;;;5008669;28;20041;-85
2021/05/15 10:05:12;;;;;;;4.15;0.30;;;16.70;67.60;;;;;;5009748;28;20045;-85
2021/05/15 10:07:39;;;;;;;0.55;0.03;;;16.70;67.40;;;;;;5010048;28;20060;-84
2021/05/15 10:10:06;;;;;;;1.23;0.57;;;16.80;67.40;;;;;;4995975;28;20045;-83
2021/05/15 10:12:33;;;;;;;0.20;0.05;;;16.90;67.30;;;;;;5012074;28;20026;-81
2021/05/15 10:15:01;;;;;;;1.23;0.03;;;16.90;67.10;;;;;;5024996;28;20033;-81
2021/05/15 10:17:27;;;;;;;8.20;0.35;;;17.00;67.00;;;;;;5010340;28;20498;-81
2021/05/15 10:19:54;;;;;;;2.08;0.65;;;17.00;66.90;;;;;;5011300;28;20038;-83
2021/05/15 10:22:20;;;;;;;0.57;0.10;;;16.90;66.80;;;;;;4992079;28;20052;-82
2021/05/15 10:24:48;;;;;;;0.20;0.10;;;16.90;66.90;;;;;;5010570;28;20041;-82
2021/05/15 10:27:15;;;;;;;0.43;0.13;;;16.80;67.00;;;;;;5024627;28;20046;-81
2021/05/15 10:29:51;;;;;;;0.20;0.10;;;16.80;67.00;;;;;;5012927;28;20045;-83
2021/05/15 10:32:29;;;;;;;3.13;0.40;;;16.80;67.10;;;;;;5010818;28;20042;-82
2021/05/15 10:34:58;;;;;;;17.55;1.10;;;16.70;67.00;;;;;;5012268;28;20045;-82
2021/05/15 10:37:24;;;;;;;2.83;0.20;;;16.70;67.00;;;;;;5011898;28;20040;-81
2021/05/15 10:39:50;;;;;;;2.55;0.57;;;16.70;67.10;;;;;;5010776;28;20464;-81
2021/05/15 10:42:30;;;;;;;5.05;0.15;;;16.60;67.00;;;;;;5024256;28;20049;-79
2021/05/15 10:44:56;;;;;;;0.47;0.00;;;16.60;66.90;;;;;;5040938;28;20056;-80
2021/05/15 10:47:22;;;;;;;4.65;0.52;;;16.60;66.90;;;;;;5010867;28;20042;-80
2021/05/15 10:49:49;;;;;;;4.60;0.22;;;16.60;66.80;;;;;;5010536;28;20046;-79
2021/05/15 10:52:17;;;;;;;7.03;0.52;;;16.70;66.70;;;;;;5041977;28;20479;-80
2021/05/15 10:54:48;;;;;;;1.92;0.25;;;16.80;66.50;;;;;;5010745;28;20395;-79
2021/05/15 10:57:15;;;;;;;1.02;0.47;;;16.90;66.30;;;;;;5011962;28;20471;-80
2021/05/15 10:59:42;;;;;;;0.88;0.30;;;17.00;66.10;;;;;;4994766;28;20056;-80
2021/05/15 11:02:10;;;;;;;3.10;0.20;;;17.10;66.00;;;;;;5010216;28;20042;-82
2021/05/15 11:04:52;;;;;;;3.05;0.20;;;17.10;65.90;;;;;;5010800;28;20069;-82
2021/05/15 11:07:22;;;;;;;0.00;0.00;;;17.20;65.80;;;;;;5011139;28;20026;-81
2021/05/15 11:09:53;;;;;;;3.33;0.60;;;17.20;65.60;;;;;;5009954;28;20035;-83
2021/05/15 11:12:19;;;;;;;5.20;0.38;;;17.30;65.50;;;;;;5041357;28;20041;-82
2021/05/15 11:14:46;;;;;;;0.25;0.00;;;17.30;65.50;;;;;;4988486;28;20053;-82
2021/05/15 11:17:29;;;;;;;4.38;0.38;;;17.30;65.40;;;;;;5033243;28;20030;-81
2021/05/15 11:20:08;;;;;;;0.65;0.38;;;17.40;65.30;;;;;;5011705;28;20053;-81
2021/05/15 11:22:43;;;;;;;0.98;0.10;;;17.60;65.00;;;;;;5006910;28;20487;-81
2021/05/15 11:25:15;;;;;;;0.50;0.50;;;17.60;64.70;;;;;;5011172;28;20033;-81
2021/05/15 11:28:00;;;;;;;0.00;0.00;;;17.70;64.70;;;;;;5011010;28;20038;-82
2021/05/15 11:30:42;;;;;;;1.85;0.90;;;17.80;64.50;;;;;;5011486;28;20046;-81
2021/05/15 11:33:11;;;;;;;6.22;0.30;;;18.00;64.30;;;;;;5013461;28;20405;-83
2021/05/15 11:35:38;;;;;;;5.28;0.45;;;18.20;64.10;;;;;;5008429;28;20034;-83
2021/05/15 11:38:09;;;;;;;2.08;0.38;;;18.30;63.80;;;;;;4991134;28;20511;-83
2021/05/15 11:40:39;;;;;;;1.17;0.17;;;18.50;63.40;;;;;;4999061;28;20026;-83
2021/05/15 11:43:05;;;;;;;6.68;0.60;;;18.50;63.20;;;;;;5011221;28;20084;-83
2021/05/15 11:45:33;;;;;;;0.47;0.17;;;18.70;63.30;;;;;;5010531;28;20679;-83
2021/05/15 11:48:21;;;;;;;2.95;0.25;;;18.90;63.00;;;;;;5012383;28;20029;-83
2021/05/15 11:51:00;;;;;;;8.18;0.22;;;19.00;62.60;;;;;;5010890;28;20033;-82
2021/05/15 11:53:34;;;;;;;5.93;0.20;;;19.00;62.60;;;;;;5009598;28;20034;-82
2021/05/15 11:56:00;;;;;;;4.90;0.65;;;18.90;62.70;;;;;;5009298;28;20049;-84
2021/05/15 11:58:26;;;;;;;2.30;0.15;;;18.90;62.80;;;;;;4992147;28;20033;-83
2021/05/15 12:00:52;;;;;;;0.00;0.00;;;18.90;62.70;;;;;;4990701;28;20046;-84
2021/05/15 12:03:22;;;;;;;1.27;0.20;;;18.80;62.80;;;;;;5012783;28;20045;-83
2021/05/15 12:05:49;;;;;;;0.68;0.28;;;18.70;62.90;;;;;;5008507;28;20470;-84
2021/05/15 12:08:16;;;;;;;3.20;0.10;;;18.80;63.00;;;;;;5008527;28;20507;-84
2021/05/15 12:10:42;;;;;;;4.45;0.57;;;18.90;62.80;;;;;;5010708;28;20026;-82
2021/05/15 12:13:08;;;;;;;1.00;0.20;;;19.00;62.60;;;;;;4993507;28;20545;-83
2021/05/15 12:15:37;;;;;;;1.38;0.30;;;19.20;62.40;;;;;;4992393;28;20029;-83
2021/05/15 12:18:03;;;;;;;8.55;0.35;;;19.30;62.20;;;;;;5041421;28;20479;-84
2021/05/15 12:20:43;;;;;;;1.08;0.22;;;19.50;61.90;;;;;;5007234;28;20026;-84
2021/05/15 12:23:09;;;;;;;8.53;0.03;;;19.60;61.50;;;;;;5009055;28;20033;-84
2021/05/15 12:25:36;;;;;;;2.08;0.20;;;19.80;61.40;;;;;;5010377;28;20045;-84
2021/05/15 12:28:03;;;;;;;4.10;0.17;;;19.80;61.20;;;;;;5009111;28;20053;-84
2021/05/15 12:30:29;;;;;;;0.32;0.13;;;19.80;61.20;;;;;;5008146;28;20038;-85
2021/05/15 12:33:04;;;;;;;1.70;0.13;;;19.80;61.30;;;;;;5022558;28;20038;-84
2021/05/15 12:35:32;;;;;;;1.60;0.40;;;19.80;61.40;;;;;;4990350;28;20045;-84
2021/05/15 12:37:58;;;;;;;6.28;0.73;;;19.80;61.20;;;;;;5014384;28;20057;-84
2021/05/15 12:40:30;;;;;;;5.88;0.45;;;19.90;61.20;;;;;;5008592;28;20022;-84
2021/05/15 12:43:10;;;;;;;0.63;0.25;;;19.90;61.00;;;;;;4994978;28;20053;-84
2021/05/15 12:45:37;;;;;;;8.30;0.52;;;19.90;60.70;;;;;;4992455;28;20026;-84
2021/05/15 12:48:05;;;;;;;6.80;0.38;;;19.90;60.80;;;;;;5038985;28;20041;-83